sensor_id;sensor_type;location;lat;lon;timestamp;P1;durP1;ratioP1;P2;durP2;ratioP2
9536;SDS011;4807;48.024;11.726;2023-05-07T00:02:06;2.57;;;2.37;;
9536;SDS011;4807;48.024;11.726;2023-05-07T00:05:15;2.43;;;2.33;;
9536;SDS011;4807;48.024;11.726;2023-05-07T00:08:25;3.00;;;2.77;;
9536;SDS011;4807;48.024;11.726;2023-05-07T00:11:34;3.67;;;3.03;;
9536;SDS011;4807;48.024;11.726;2023-05-07T00:14:43;4.00;;;3.10;;
9536;SDS011;4807;48.024;11.726;2023-05-07T00:17:51;2.90;;;2.70;;
9536;SDS011;4807;48.024;11.726;2023-05-07T00:21:00;3.67;;;3.30;;
9536;SDS011;4807;48.024;11.726;2023-05-07T00:24:10;3.77;;;3.10;;
9536;SDS011;4807;48.024;11.726;2023-05-07T00:27:19;4.87;;;3.13;;
9536;SDS011;4807;48.024;11.726;2023-05-07T00:30:28;3.27;;;3.07;;
9536;SDS011;4807;48.024;11.726;2023-05-07T00:33:37;3.23;;;3.03;;
9536;SDS011;4807;48.024;11.726;2023-05-07T00:36:46;3.40;;;3.10;;
9536;SDS011;4807;48.024;11.726;2023-05-07T00:39:55;3.40;;;3.10;;
9536;SDS011;4807;48.024;11.726;2023-05-07T00:43:04;2.73;;;2.53;;
9536;SDS011;4807;48.024;11.726;2023-05-07T00:46:13;3.20;;;3.00;;
9536;SDS011;4807;48.024;11.726;2023-05-07T00:49:22;5.37;;;3.63;;
9536;SDS011;4807;48.024;11.726;2023-05-07T00:52:37;4.13;;;3.77;;
9536;SDS011;4807;48.024;11.726;2023-05-07T00:55:47;4.10;;;3.73;;
9536;SDS011;4807;48.024;11.726;2023-05-07T00:58:57;4.47;;;3.37;;
9536;SDS011;4807;48.024;11.726;2023-05-07T01:02:06;4.20;;;3.80;;
9536;SDS011;4807;48.024;11.726;2023-05-07T01:05:15;4.70;;;4.30;;
9536;SDS011;4807;48.024;11.726;2023-05-07T01:08:26;5.40;;;4.40;;
9536;SDS011;4807;48.024;11.726;2023-05-07T01:11:38;4.60;;;3.60;;
9536;SDS011;4807;48.024;11.726;2023-05-07T01:14:48;4.77;;;3.43;;
9536;SDS011;4807;48.024;11.726;2023-05-07T01:17:57;3.73;;;3.40;;
9536;SDS011;4807;48.024;11.726;2023-05-07T01:21:11;4.40;;;3.27;;
9536;SDS011;4807;48.024;11.726;2023-05-07T01:24:28;3.53;;;3.23;;
9536;SDS011;4807;48.024;11.726;2023-05-07T01:27:39;4.90;;;3.00;;
9536;SDS011;4807;48.024;11.726;2023-05-07T01:30:49;3.90;;;3.60;;
9536;SDS011;4807;48.024;11.726;2023-05-07T01:34:00;3.90;;;3.33;;
9536;SDS011;4807;48.024;11.726;2023-05-07T01:37:11;3.37;;;3.07;;
9536;SDS011;4807;48.024;11.726;2023-05-07T01:40:22;3.63;;;3.33;;
9536;SDS011;4807;48.024;11.726;2023-05-07T01:43:32;3.60;;;3.30;;
9536;SDS011;4807;48.024;11.726;2023-05-07T01:46:41;3.63;;;3.33;;
9536;SDS011;4807;48.024;11.726;2023-05-07T01:49:50;4.07;;;3.30;;
9536;SDS011;4807;48.024;11.726;2023-05-07T01:52:59;4.17;;;3.20;;
9536;SDS011;4807;48.024;11.726;2023-05-07T01:56:11;4.10;;;3.80;;
9536;SDS011;4807;48.024;11.726;2023-05-07T01:59:21;3.40;;;3.10;;
9536;SDS011;4807;48.024;11.726;2023-05-07T02:02:30;3.57;;;3.27;;
9536;SDS011;4807;48.024;11.726;2023-05-07T02:05:39;3.23;;;3.03;;
9536;SDS011;4807;48.024;11.726;2023-05-07T02:09:05;3.40;;;2.93;;
9536;SDS011;4807;48.024;11.726;2023-05-07T02:12:18;3.37;;;3.17;;
9536;SDS011;4807;48.024;11.726;2023-05-07T02:15:26;3.27;;;3.07;;
9536;SDS011;4807;48.024;11.726;2023-05-07T02:18:37;3.57;;;3.00;;
9536;SDS011;4807;48.024;11.726;2023-05-07T02:21:45;2.80;;;2.57;;
9536;SDS011;4807;48.024;11.726;2023-05-07T02:24:54;4.57;;;3.33;;
9536;SDS011;4807;48.024;11.726;2023-05-07T02:28:04;5.87;;;3.33;;
9536;SDS011;4807;48.024;11.726;2023-05-07T02:31:23;3.03;;;2.83;;
9536;SDS011;4807;48.024;11.726;2023-05-07T02:34:32;3.90;;;3.27;;
9536;SDS011;4807;48.024;11.726;2023-05-07T02:37:41;3.90;;;3.50;;
9536;SDS011;4807;48.024;11.726;2023-05-07T02:40:49;2.90;;;2.70;;
9536;SDS011;4807;48.024;11.726;2023-05-07T02:43:59;3.73;;;2.97;;
9536;SDS011;4807;48.024;11.726;2023-05-07T02:47:08;3.07;;;2.87;;
9536;SDS011;4807;48.024;11.726;2023-05-07T02:50:20;3.30;;;3.00;;
9536;SDS011;4807;48.024;11.726;2023-05-07T02:53:29;2.63;;;2.43;;
9536;SDS011;4807;48.024;11.726;2023-05-07T02:56:38;2.90;;;2.70;;
9536;SDS011;4807;48.024;11.726;2023-05-07T02:59:47;4.40;;;3.37;;
9536;SDS011;4807;48.024;11.726;2023-05-07T03:02:58;3.37;;;3.10;;
9536;SDS011;4807;48.024;11.726;2023-05-07T03:06:08;3.20;;;2.90;;
9536;SDS011;4807;48.024;11.726;2023-05-07T03:09:16;4.33;;;3.27;;
9536;SDS011;4807;48.024;11.726;2023-05-07T03:12:25;3.07;;;2.80;;
9536;SDS011;4807;48.024;11.726;2023-05-07T03:15:35;2.83;;;2.63;;
9536;SDS011;4807;48.024;11.726;2023-05-07T03:18:44;4.17;;;3.30;;
9536;SDS011;4807;48.024;11.726;2023-05-07T03:21:52;5.33;;;3.63;;
9536;SDS011;4807;48.024;11.726;2023-05-07T03:25:01;3.20;;;3.00;;
9536;SDS011;4807;48.024;11.726;2023-05-07T03:28:10;2.53;;;2.43;;
9536;SDS011;4807;48.024;11.726;2023-05-07T03:31:27;2.63;;;2.47;;
9536;SDS011;4807;48.024;11.726;2023-05-07T03:34:35;5.80;;;2.90;;
9536;SDS011;4807;48.024;11.726;2023-05-07T03:37:45;2.83;;;2.60;;
9536;SDS011;4807;48.024;11.726;2023-05-07T03:40:54;3.00;;;2.70;;
9536;SDS011;4807;48.024;11.726;2023-05-07T03:44:03;2.97;;;2.47;;
9536;SDS011;4807;48.024;11.726;2023-05-07T03:47:14;3.23;;;2.93;;
9536;SDS011;4807;48.024;11.726;2023-05-07T03:50:24;3.37;;;3.07;;
9536;SDS011;4807;48.024;11.726;2023-05-07T03:53:32;3.40;;;3.10;;
9536;SDS011;4807;48.024;11.726;2023-05-07T03:56:41;3.83;;;2.90;;
9536;SDS011;4807;48.024;11.726;2023-05-07T03:59:50;2.97;;;2.77;;
9536;SDS011;4807;48.024;11.726;2023-05-07T04:02:59;3.30;;;3.00;;
9536;SDS011;4807;48.024;11.726;2023-05-07T04:06:10;3.87;;;3.33;;
9536;SDS011;4807;48.024;11.726;2023-05-07T04:09:22;3.30;;;3.03;;
9536;SDS011;4807;48.024;11.726;2023-05-07T04:12:31;3.37;;;3.07;;
9536;SDS011;4807;48.024;11.726;2023-05-07T04:15:40;2.77;;;2.57;;
9536;SDS011;4807;48.024;11.726;2023-05-07T04:18:54;3.10;;;2.90;;
9536;SDS011;4807;48.024;11.726;2023-05-07T04:22:03;3.20;;;2.90;;
9536;SDS011;4807;48.024;11.726;2023-05-07T04:25:12;3.10;;;2.90;;
9536;SDS011;4807;48.024;11.726;2023-05-07T04:28:21;3.30;;;3.00;;
9536;SDS011;4807;48.024;11.726;2023-05-07T04:31:30;3.97;;;2.93;;
9536;SDS011;4807;48.024;11.726;2023-05-07T04:34:40;3.40;;;3.10;;
9536;SDS011;4807;48.024;11.726;2023-05-07T04:37:49;4.13;;;3.03;;
9536;SDS011;4807;48.024;11.726;2023-05-07T04:40:58;3.87;;;3.00;;
9536;SDS011;4807;48.024;11.726;2023-05-07T04:44:10;2.67;;;2.47;;
9536;SDS011;4807;48.024;11.726;2023-05-07T04:47:19;3.03;;;2.80;;
9536;SDS011;4807;48.024;11.726;2023-05-07T04:50:29;3.73;;;3.33;;
9536;SDS011;4807;48.024;11.726;2023-05-07T04:53:40;3.60;;;3.40;;
9536;SDS011;4807;48.024;11.726;2023-05-07T04:56:50;3.13;;;2.93;;
9536;SDS011;4807;48.024;11.726;2023-05-07T04:59:58;3.00;;;2.80;;
9536;SDS011;4807;48.024;11.726;2023-05-07T05:03:10;2.70;;;2.50;;
9536;SDS011;4807;48.024;11.726;2023-05-07T05:06:20;2.67;;;2.40;;
9536;SDS011;4807;48.024;11.726;2023-05-07T05:09:30;2.60;;;2.40;;
9536;SDS011;4807;48.024;11.726;2023-05-07T05:12:40;2.27;;;2.10;;
9536;SDS011;4807;48.024;11.726;2023-05-07T05:15:48;1.93;;;1.83;;
9536;SDS011;4807;48.024;11.726;2023-05-07T05:18:59;2.53;;;2.43;;
9536;SDS011;4807;48.024;11.726;2023-05-07T05:22:15;2.80;;;2.47;;
9536;SDS011;4807;48.024;11.726;2023-05-07T05:25:24;3.23;;;2.93;;
9536;SDS011;4807;48.024;11.726;2023-05-07T05:28:35;2.93;;;2.73;;
9536;SDS011;4807;48.024;11.726;2023-05-07T05:31:44;2.37;;;2.23;;
9536;SDS011;4807;48.024;11.726;2023-05-07T05:34:53;2.70;;;2.50;;
9536;SDS011;4807;48.024;11.726;2023-05-07T05:38:03;2.80;;;2.60;;
9536;SDS011;4807;48.024;11.726;2023-05-07T05:41:13;3.70;;;2.80;;
9536;SDS011;4807;48.024;11.726;2023-05-07T05:44:21;4.10;;;3.15;;
9536;SDS011;4807;48.024;11.726;2023-05-07T05:47:30;4.23;;;3.00;;
9536;SDS011;4807;48.024;11.726;2023-05-07T05:50:41;3.30;;;2.87;;
9536;SDS011;4807;48.024;11.726;2023-05-07T05:53:51;2.93;;;2.73;;
9536;SDS011;4807;48.024;11.726;2023-05-07T05:57:00;2.30;;;2.20;;
9536;SDS011;4807;48.024;11.726;2023-05-07T06:00:10;2.00;;;1.90;;
9536;SDS011;4807;48.024;11.726;2023-05-07T06:03:25;1.73;;;1.63;;
9536;SDS011;4807;48.024;11.726;2023-05-07T06:06:36;4.20;;;1.97;;
9536;SDS011;4807;48.024;11.726;2023-05-07T06:09:47;2.17;;;2.00;;
9536;SDS011;4807;48.024;11.726;2023-05-07T06:12:55;1.97;;;1.87;;
9536;SDS011;4807;48.024;11.726;2023-05-07T06:16:05;1.10;;;1.10;;
9536;SDS011;4807;48.024;11.726;2023-05-07T06:19:14;1.53;;;1.47;;
9536;SDS011;4807;48.024;11.726;2023-05-07T06:22:24;2.30;;;1.40;;
9536;SDS011;4807;48.024;11.726;2023-05-07T06:25:35;1.20;;;1.07;;
9536;SDS011;4807;48.024;11.726;2023-05-07T06:28:44;1.40;;;1.17;;
9536;SDS011;4807;48.024;11.726;2023-05-07T06:31:54;2.77;;;1.27;;
9536;SDS011;4807;48.024;11.726;2023-05-07T06:35:03;1.67;;;1.57;;
9536;SDS011;4807;48.024;11.726;2023-05-07T06:38:15;1.20;;;1.10;;
9536;SDS011;4807;48.024;11.726;2023-05-07T06:41:26;2.53;;;1.23;;
9536;SDS011;4807;48.024;11.726;2023-05-07T06:44:39;3.93;;;1.30;;
9536;SDS011;4807;48.024;11.726;2023-05-07T06:47:50;2.83;;;1.33;;
9536;SDS011;4807;48.024;11.726;2023-05-07T06:51:01;1.63;;;1.20;;
9536;SDS011;4807;48.024;11.726;2023-05-07T06:54:11;1.63;;;1.07;;
9536;SDS011;4807;48.024;11.726;2023-05-07T06:57:23;1.93;;;1.00;;
9536;SDS011;4807;48.024;11.726;2023-05-07T07:00:32;2.33;;;1.50;;
9536;SDS011;4807;48.024;11.726;2023-05-07T07:03:41;2.67;;;1.73;;
9536;SDS011;4807;48.024;11.726;2023-05-07T07:06:49;1.60;;;1.50;;
9536;SDS011;4807;48.024;11.726;2023-05-07T07:10:01;1.37;;;1.33;;
9536;SDS011;4807;48.024;11.726;2023-05-07T07:13:12;2.00;;;1.30;;
9536;SDS011;4807;48.024;11.726;2023-05-07T07:16:21;1.30;;;1.20;;
9536;SDS011;4807;48.024;11.726;2023-05-07T07:19:30;1.10;;;1.10;;
9536;SDS011;4807;48.024;11.726;2023-05-07T07:22:42;2.17;;;1.20;;
9536;SDS011;4807;48.024;11.726;2023-05-07T07:25:51;1.40;;;1.30;;
9536;SDS011;4807;48.024;11.726;2023-05-07T07:29:01;1.70;;;1.50;;
9536;SDS011;4807;48.024;11.726;2023-05-07T07:32:10;1.80;;;1.20;;
9536;SDS011;4807;48.024;11.726;2023-05-07T07:35:20;1.37;;;1.27;;
9536;SDS011;4807;48.024;11.726;2023-05-07T07:38:31;1.10;;;1.07;;
9536;SDS011;4807;48.024;11.726;2023-05-07T07:41:40;1.87;;;1.20;;
9536;SDS011;4807;48.024;11.726;2023-05-07T07:44:51;2.27;;;1.33;;
9536;SDS011;4807;48.024;11.726;2023-05-07T07:48:02;2.43;;;1.10;;
9536;SDS011;4807;48.024;11.726;2023-05-07T07:51:15;1.80;;;1.30;;
9536;SDS011;4807;48.024;11.726;2023-05-07T07:54:24;2.13;;;1.10;;
9536;SDS011;4807;48.024;11.726;2023-05-07T07:57:33;1.63;;;1.10;;
9536;SDS011;4807;48.024;11.726;2023-05-07T08:00:45;1.43;;;1.20;;
9536;SDS011;4807;48.024;11.726;2023-05-07T08:03:54;1.53;;;1.10;;
9536;SDS011;4807;48.024;11.726;2023-05-07T08:07:05;1.73;;;1.37;;
9536;SDS011;4807;48.024;11.726;2023-05-07T08:10:18;1.67;;;1.30;;
9536;SDS011;4807;48.024;11.726;2023-05-07T08:13:32;2.43;;;1.23;;
9536;SDS011;4807;48.024;11.726;2023-05-07T08:16:43;1.53;;;1.43;;
9536;SDS011;4807;48.024;11.726;2023-05-07T08:19:52;1.43;;;1.30;;
9536;SDS011;4807;48.024;11.726;2023-05-07T08:23:01;1.43;;;1.33;;
9536;SDS011;4807;48.024;11.726;2023-05-07T08:26:11;2.30;;;1.47;;
9536;SDS011;4807;48.024;11.726;2023-05-07T08:29:20;2.60;;;1.50;;
9536;SDS011;4807;48.024;11.726;2023-05-07T08:32:30;1.50;;;1.40;;
9536;SDS011;4807;48.024;11.726;2023-05-07T08:35:39;3.67;;;1.37;;
9536;SDS011;4807;48.024;11.726;2023-05-07T08:38:50;1.70;;;1.30;;
9536;SDS011;4807;48.024;11.726;2023-05-07T08:42:00;1.10;;;1.10;;
9536;SDS011;4807;48.024;11.726;2023-05-07T08:45:12;1.23;;;1.13;;
9536;SDS011;4807;48.024;11.726;2023-05-07T08:48:25;2.27;;;1.23;;
9536;SDS011;4807;48.024;11.726;2023-05-07T08:51:43;1.20;;;1.10;;
9536;SDS011;4807;48.024;11.726;2023-05-07T08:54:52;1.27;;;1.20;;
9536;SDS011;4807;48.024;11.726;2023-05-07T08:58:03;1.10;;;1.10;;
9536;SDS011;4807;48.024;11.726;2023-05-07T09:01:19;1.67;;;1.20;;
9536;SDS011;4807;48.024;11.726;2023-05-07T09:04:33;2.30;;;1.20;;
9536;SDS011;4807;48.024;11.726;2023-05-07T09:07:43;3.67;;;1.60;;
9536;SDS011;4807;48.024;11.726;2023-05-07T09:10:53;1.00;;;1.00;;
9536;SDS011;4807;48.024;11.726;2023-05-07T09:14:03;1.93;;;1.47;;
9536;SDS011;4807;48.024;11.726;2023-05-07T09:17:18;1.73;;;1.57;;
9536;SDS011;4807;48.024;11.726;2023-05-07T09:20:28;1.43;;;1.20;;
9536;SDS011;4807;48.024;11.726;2023-05-07T09:23:39;1.70;;;1.60;;
9536;SDS011;4807;48.024;11.726;2023-05-07T09:26:49;1.73;;;1.30;;
9536;SDS011;4807;48.024;11.726;2023-05-07T09:29:58;1.33;;;1.30;;
9536;SDS011;4807;48.024;11.726;2023-05-07T09:33:07;2.10;;;1.57;;
9536;SDS011;4807;48.024;11.726;2023-05-07T09:36:21;1.57;;;1.40;;
9536;SDS011;4807;48.024;11.726;2023-05-07T09:39:38;1.50;;;1.27;;
9536;SDS011;4807;48.024;11.726;2023-05-07T09:42:49;3.17;;;1.60;;
9536;SDS011;4807;48.024;11.726;2023-05-07T09:45:59;1.50;;;1.33;;
9536;SDS011;4807;48.024;11.726;2023-05-07T09:49:11;1.47;;;1.37;;
9536;SDS011;4807;48.024;11.726;2023-05-07T09:52:31;2.23;;;1.40;;
9536;SDS011;4807;48.024;11.726;2023-05-07T09:55:44;1.70;;;1.60;;
9536;SDS011;4807;48.024;11.726;2023-05-07T09:58:55;1.77;;;1.20;;
9536;SDS011;4807;48.024;11.726;2023-05-07T10:02:10;2.10;;;1.70;;
9536;SDS011;4807;48.024;11.726;2023-05-07T10:05:26;3.13;;;1.73;;
9536;SDS011;4807;48.024;11.726;2023-05-07T10:08:39;1.77;;;1.50;;
9536;SDS011;4807;48.024;11.726;2023-05-07T10:11:50;1.53;;;1.43;;
9536;SDS011;4807;48.024;11.726;2023-05-07T10:15:01;1.67;;;1.10;;
9536;SDS011;4807;48.024;11.726;2023-05-07T10:18:11;2.10;;;1.40;;
9536;SDS011;4807;48.024;11.726;2023-05-07T10:21:23;3.07;;;1.20;;
9536;SDS011;4807;48.024;11.726;2023-05-07T10:24:39;3.13;;;1.27;;
9536;SDS011;4807;48.024;11.726;2023-05-07T10:27:55;1.30;;;1.20;;
9536;SDS011;4807;48.024;11.726;2023-05-07T10:31:08;1.80;;;1.40;;
9536;SDS011;4807;48.024;11.726;2023-05-07T10:34:28;1.63;;;1.00;;
9536;SDS011;4807;48.024;11.726;2023-05-07T10:37:43;1.07;;;0.80;;
9536;SDS011;4807;48.024;11.726;2023-05-07T10:40:54;0.80;;;0.80;;
9536;SDS011;4807;48.024;11.726;2023-05-07T10:44:03;1.37;;;1.03;;
9536;SDS011;4807;48.024;11.726;2023-05-07T10:47:15;4.27;;;1.03;;
9536;SDS011;4807;48.024;11.726;2023-05-07T10:50:28;1.47;;;1.00;;
9536;SDS011;4807;48.024;11.726;2023-05-07T10:53:41;0.73;;;0.73;;
9536;SDS011;4807;48.024;11.726;2023-05-07T10:56:57;0.70;;;0.70;;
9536;SDS011;4807;48.024;11.726;2023-05-07T11:01:01;2.13;;;0.80;;
9536;SDS011;4807;48.024;11.726;2023-05-07T11:04:15;1.87;;;0.60;;
9536;SDS011;4807;48.024;11.726;2023-05-07T11:07:40;1.57;;;0.87;;
9536;SDS011;4807;48.024;11.726;2023-05-07T11:11:02;1.90;;;0.60;;
9536;SDS011;4807;48.024;11.726;2023-05-07T11:18:04;1.73;;;0.73;;
9536;SDS011;4807;48.024;11.726;2023-05-07T11:21:32;0.77;;;0.70;;
9536;SDS011;4807;48.024;11.726;2023-05-07T11:25:03;2.07;;;0.57;;
9536;SDS011;4807;48.024;11.726;2023-05-07T11:28:14;2.00;;;0.70;;
9536;SDS011;4807;48.024;11.726;2023-05-07T11:31:33;0.97;;;0.90;;
9536;SDS011;4807;48.024;11.726;2023-05-07T11:34:42;2.30;;;0.90;;
9536;SDS011;4807;48.024;11.726;2023-05-07T11:37:57;1.10;;;1.00;;
9536;SDS011;4807;48.024;11.726;2023-05-07T11:41:08;0.77;;;0.70;;
9536;SDS011;4807;48.024;11.726;2023-05-07T11:44:16;2.50;;;0.70;;
9536;SDS011;4807;48.024;11.726;2023-05-07T11:47:29;1.70;;;0.80;;
9536;SDS011;4807;48.024;11.726;2023-05-07T11:50:49;0.90;;;0.90;;
9536;SDS011;4807;48.024;11.726;2023-05-07T11:53:59;1.07;;;0.90;;
9536;SDS011;4807;48.024;11.726;2023-05-07T11:57:13;0.87;;;0.80;;
9536;SDS011;4807;48.024;11.726;2023-05-07T12:00:23;0.80;;;0.80;;
9536;SDS011;4807;48.024;11.726;2023-05-07T12:03:33;1.17;;;0.80;;
9536;SDS011;4807;48.024;11.726;2023-05-07T12:06:42;1.00;;;0.77;;
9536;SDS011;4807;48.024;11.726;2023-05-07T12:09:51;2.17;;;0.80;;
9536;SDS011;4807;48.024;11.726;2023-05-07T12:13:01;0.80;;;0.80;;
9536;SDS011;4807;48.024;11.726;2023-05-07T12:16:10;1.50;;;1.10;;
9536;SDS011;4807;48.024;11.726;2023-05-07T12:19:21;1.43;;;0.67;;
9536;SDS011;4807;48.024;11.726;2023-05-07T12:22:30;1.80;;;0.90;;
9536;SDS011;4807;48.024;11.726;2023-05-07T12:25:39;2.60;;;2.27;;
9536;SDS011;4807;48.024;11.726;2023-05-07T12:28:54;1.77;;;1.10;;
9536;SDS011;4807;48.024;11.726;2023-05-07T12:32:05;1.10;;;1.00;;
9536;SDS011;4807;48.024;11.726;2023-05-07T12:35:16;0.80;;;0.80;;
9536;SDS011;4807;48.024;11.726;2023-05-07T12:38:24;1.57;;;1.20;;
9536;SDS011;4807;48.024;11.726;2023-05-07T12:41:35;1.20;;;0.93;;
9536;SDS011;4807;48.024;11.726;2023-05-07T12:45:00;1.50;;;1.00;;
9536;SDS011;4807;48.024;11.726;2023-05-07T12:48:17;1.73;;;0.87;;
9536;SDS011;4807;48.024;11.726;2023-05-07T12:51:29;1.57;;;1.03;;
9536;SDS011;4807;48.024;11.726;2023-05-07T12:54:37;1.77;;;0.90;;
9536;SDS011;4807;48.024;11.726;2023-05-07T12:57:48;1.93;;;1.13;;
9536;SDS011;4807;48.024;11.726;2023-05-07T13:00:58;1.23;;;0.83;;
9536;SDS011;4807;48.024;11.726;2023-05-07T13:04:08;1.00;;;0.90;;
9536;SDS011;4807;48.024;11.726;2023-05-07T13:07:25;2.07;;;1.00;;
9536;SDS011;4807;48.024;11.726;2023-05-07T13:10:36;1.10;;;1.03;;
9536;SDS011;4807;48.024;11.726;2023-05-07T13:13:45;1.73;;;1.07;;
9536;SDS011;4807;48.024;11.726;2023-05-07T13:16:53;1.43;;;0.90;;
9536;SDS011;4807;48.024;11.726;2023-05-07T13:20:02;2.37;;;1.17;;
9536;SDS011;4807;48.024;11.726;2023-05-07T13:23:13;1.27;;;1.20;;
9536;SDS011;4807;48.024;11.726;2023-05-07T13:26:22;1.23;;;1.10;;
9536;SDS011;4807;48.024;11.726;2023-05-07T13:29:32;0.90;;;0.80;;
9536;SDS011;4807;48.024;11.726;2023-05-07T13:32:41;1.60;;;0.97;;
9536;SDS011;4807;48.024;11.726;2023-05-07T13:35:52;1.43;;;1.33;;
9536;SDS011;4807;48.024;11.726;2023-05-07T13:39:02;1.70;;;0.80;;
9536;SDS011;4807;48.024;11.726;2023-05-07T13:42:12;1.10;;;1.00;;
9536;SDS011;4807;48.024;11.726;2023-05-07T13:45:21;1.93;;;1.10;;
9536;SDS011;4807;48.024;11.726;2023-05-07T13:48:33;1.20;;;1.10;;
9536;SDS011;4807;48.024;11.726;2023-05-07T13:51:41;3.03;;;0.90;;
9536;SDS011;4807;48.024;11.726;2023-05-07T13:54:52;1.37;;;1.27;;
9536;SDS011;4807;48.024;11.726;2023-05-07T13:58:01;2.10;;;1.03;;
9536;SDS011;4807;48.024;11.726;2023-05-07T14:01:13;1.60;;;1.10;;
9536;SDS011;4807;48.024;11.726;2023-05-07T14:04:21;1.57;;;1.27;;
9536;SDS011;4807;48.024;11.726;2023-05-07T14:07:30;1.60;;;1.40;;
9536;SDS011;4807;48.024;11.726;2023-05-07T14:10:40;1.83;;;1.17;;
9536;SDS011;4807;48.024;11.726;2023-05-07T14:13:49;1.30;;;1.20;;
9536;SDS011;4807;48.024;11.726;2023-05-07T14:16:57;1.20;;;1.10;;
9536;SDS011;4807;48.024;11.726;2023-05-07T14:20:07;0.87;;;0.87;;
9536;SDS011;4807;48.024;11.726;2023-05-07T14:23:17;1.23;;;1.13;;
9536;SDS011;4807;48.024;11.726;2023-05-07T14:26:27;1.87;;;1.00;;
9536;SDS011;4807;48.024;11.726;2023-05-07T14:29:35;1.10;;;1.00;;
9536;SDS011;4807;48.024;11.726;2023-05-07T14:32:44;1.43;;;1.33;;
9536;SDS011;4807;48.024;11.726;2023-05-07T14:35:52;2.10;;;1.20;;
9536;SDS011;4807;48.024;11.726;2023-05-07T14:39:01;1.67;;;1.03;;
9536;SDS011;4807;48.024;11.726;2023-05-07T14:42:12;1.20;;;1.03;;
9536;SDS011;4807;48.024;11.726;2023-05-07T14:45:20;1.40;;;1.30;;
9536;SDS011;4807;48.024;11.726;2023-05-07T14:48:29;1.40;;;1.30;;
9536;SDS011;4807;48.024;11.726;2023-05-07T14:51:38;1.33;;;1.00;;
9536;SDS011;4807;48.024;11.726;2023-05-07T14:54:46;1.73;;;1.20;;
9536;SDS011;4807;48.024;11.726;2023-05-07T14:57:58;1.20;;;1.10;;
9536;SDS011;4807;48.024;11.726;2023-05-07T15:01:07;2.90;;;1.30;;
9536;SDS011;4807;48.024;11.726;2023-05-07T15:04:16;2.03;;;0.90;;
9536;SDS011;4807;48.024;11.726;2023-05-07T15:07:24;2.53;;;1.10;;
9536;SDS011;4807;48.024;11.726;2023-05-07T15:10:35;1.00;;;1.00;;
9536;SDS011;4807;48.024;11.726;2023-05-07T15:13:48;0.80;;;0.80;;
9536;SDS011;4807;48.024;11.726;2023-05-07T15:16:57;1.10;;;1.10;;
9536;SDS011;4807;48.024;11.726;2023-05-07T15:20:06;1.50;;;1.20;;
9536;SDS011;4807;48.024;11.726;2023-05-07T15:23:16;1.00;;;1.00;;
9536;SDS011;4807;48.024;11.726;2023-05-07T15:26:28;1.30;;;1.20;;
9536;SDS011;4807;48.024;11.726;2023-05-07T15:29:39;1.27;;;1.17;;
9536;SDS011;4807;48.024;11.726;2023-05-07T15:32:48;1.33;;;1.00;;
9536;SDS011;4807;48.024;11.726;2023-05-07T15:35:57;1.53;;;1.10;;
9536;SDS011;4807;48.024;11.726;2023-05-07T15:39:06;1.70;;;1.40;;
9536;SDS011;4807;48.024;11.726;2023-05-07T15:42:14;3.10;;;1.23;;
9536;SDS011;4807;48.024;11.726;2023-05-07T15:45:24;1.50;;;1.27;;
9536;SDS011;4807;48.024;11.726;2023-05-07T15:48:33;1.50;;;1.30;;
9536;SDS011;4807;48.024;11.726;2023-05-07T15:51:42;1.80;;;1.70;;
9536;SDS011;4807;48.024;11.726;2023-05-07T15:54:51;1.10;;;1.10;;
9536;SDS011;4807;48.024;11.726;2023-05-07T15:58:00;2.50;;;1.20;;
9536;SDS011;4807;48.024;11.726;2023-05-07T16:01:11;1.67;;;1.13;;
9536;SDS011;4807;48.024;11.726;2023-05-07T16:04:20;1.63;;;1.00;;
9536;SDS011;4807;48.024;11.726;2023-05-07T16:07:29;1.57;;;1.10;;
9536;SDS011;4807;48.024;11.726;2023-05-07T16:10:38;1.67;;;1.20;;
9536;SDS011;4807;48.024;11.726;2023-05-07T16:13:46;1.10;;;1.10;;
9536;SDS011;4807;48.024;11.726;2023-05-07T16:16:57;1.00;;;1.00;;
9536;SDS011;4807;48.024;11.726;2023-05-07T16:20:06;1.10;;;1.00;;
9536;SDS011;4807;48.024;11.726;2023-05-07T16:23:18;1.80;;;1.20;;
9536;SDS011;4807;48.024;11.726;2023-05-07T16:26:27;2.47;;;0.90;;
9536;SDS011;4807;48.024;11.726;2023-05-07T16:29:36;1.20;;;1.00;;
9536;SDS011;4807;48.024;11.726;2023-05-07T16:32:46;1.47;;;1.20;;
9536;SDS011;4807;48.024;11.726;2023-05-07T16:35:55;1.20;;;1.10;;
9536;SDS011;4807;48.024;11.726;2023-05-07T16:39:04;1.10;;;1.00;;
9536;SDS011;4807;48.024;11.726;2023-05-07T16:42:13;1.53;;;1.00;;
9536;SDS011;4807;48.024;11.726;2023-05-07T16:45:21;1.20;;;1.10;;
9536;SDS011;4807;48.024;11.726;2023-05-07T16:48:31;1.03;;;1.00;;
9536;SDS011;4807;48.024;11.726;2023-05-07T16:51:40;1.10;;;1.00;;
9536;SDS011;4807;48.024;11.726;2023-05-07T16:54:49;1.00;;;0.80;;
9536;SDS011;4807;48.024;11.726;2023-05-07T16:58:00;1.07;;;1.03;;
9536;SDS011;4807;48.024;11.726;2023-05-07T17:01:09;2.00;;;1.20;;
9536;SDS011;4807;48.024;11.726;2023-05-07T17:04:22;1.20;;;1.10;;
9536;SDS011;4807;48.024;11.726;2023-05-07T17:07:30;1.53;;;1.30;;
9536;SDS011;4807;48.024;11.726;2023-05-07T17:10:39;1.20;;;1.10;;
9536;SDS011;4807;48.024;11.726;2023-05-07T17:13:48;3.70;;;0.90;;
9536;SDS011;4807;48.024;11.726;2023-05-07T17:16:57;1.43;;;0.90;;
9536;SDS011;4807;48.024;11.726;2023-05-07T17:20:08;0.97;;;0.97;;
9536;SDS011;4807;48.024;11.726;2023-05-07T17:23:17;2.63;;;0.90;;
9536;SDS011;4807;48.024;11.726;2023-05-07T17:26:26;1.30;;;1.00;;
9536;SDS011;4807;48.024;11.726;2023-05-07T17:29:36;1.50;;;1.40;;
9536;SDS011;4807;48.024;11.726;2023-05-07T17:32:45;0.70;;;0.70;;
9536;SDS011;4807;48.024;11.726;2023-05-07T17:35:55;1.77;;;1.00;;
9536;SDS011;4807;48.024;11.726;2023-05-07T17:39:04;1.53;;;0.80;;
9536;SDS011;4807;48.024;11.726;2023-05-07T17:42:13;1.03;;;0.80;;
9536;SDS011;4807;48.024;11.726;2023-05-07T17:45:22;1.07;;;0.90;;
9536;SDS011;4807;48.024;11.726;2023-05-07T17:48:30;1.07;;;1.03;;
9536;SDS011;4807;48.024;11.726;2023-05-07T17:51:40;2.43;;;1.13;;
9536;SDS011;4807;48.024;11.726;2023-05-07T17:55:00;1.67;;;1.00;;
9536;SDS011;4807;48.024;11.726;2023-05-07T17:58:09;2.10;;;1.00;;
9536;SDS011;4807;48.024;11.726;2023-05-07T18:01:18;1.87;;;1.20;;
9536;SDS011;4807;48.024;11.726;2023-05-07T18:04:28;1.70;;;0.93;;
9536;SDS011;4807;48.024;11.726;2023-05-07T18:07:38;1.47;;;1.00;;
9536;SDS011;4807;48.024;11.726;2023-05-07T18:10:47;0.83;;;0.83;;
9536;SDS011;4807;48.024;11.726;2023-05-07T18:13:55;0.90;;;0.90;;
9536;SDS011;4807;48.024;11.726;2023-05-07T18:17:04;1.50;;;0.90;;
9536;SDS011;4807;48.024;11.726;2023-05-07T18:20:13;1.10;;;1.00;;
9536;SDS011;4807;48.024;11.726;2023-05-07T18:23:23;1.30;;;1.10;;
9536;SDS011;4807;48.024;11.726;2023-05-07T18:26:32;1.50;;;1.03;;
9536;SDS011;4807;48.024;11.726;2023-05-07T18:29:40;2.50;;;1.13;;
9536;SDS011;4807;48.024;11.726;2023-05-07T18:32:49;2.27;;;1.00;;
9536;SDS011;4807;48.024;11.726;2023-05-07T18:35:58;1.93;;;1.20;;
9536;SDS011;4807;48.024;11.726;2023-05-07T18:39:08;1.40;;;1.30;;
9536;SDS011;4807;48.024;11.726;2023-05-07T18:42:17;1.83;;;1.63;;
9536;SDS011;4807;48.024;11.726;2023-05-07T18:45:26;2.30;;;1.40;;
9536;SDS011;4807;48.024;11.726;2023-05-07T18:48:35;2.00;;;1.73;;
9536;SDS011;4807;48.024;11.726;2023-05-07T18:51:43;1.77;;;1.67;;
9536;SDS011;4807;48.024;11.726;2023-05-07T18:54:54;2.03;;;1.60;;
9536;SDS011;4807;48.024;11.726;2023-05-07T18:58:03;2.27;;;1.40;;
9536;SDS011;4807;48.024;11.726;2023-05-07T19:01:11;1.87;;;1.20;;
9536;SDS011;4807;48.024;11.726;2023-05-07T19:04:20;1.20;;;1.20;;
9536;SDS011;4807;48.024;11.726;2023-05-07T19:07:30;1.00;;;1.00;;
9536;SDS011;4807;48.024;11.726;2023-05-07T19:10:40;1.20;;;1.10;;
9536;SDS011;4807;48.024;11.726;2023-05-07T19:13:48;1.43;;;1.30;;
9536;SDS011;4807;48.024;11.726;2023-05-07T19:16:58;1.07;;;1.07;;
9536;SDS011;4807;48.024;11.726;2023-05-07T19:20:07;2.80;;;1.10;;
9536;SDS011;4807;48.024;11.726;2023-05-07T19:23:17;1.70;;;1.60;;
9536;SDS011;4807;48.024;11.726;2023-05-07T19:26:27;1.53;;;1.43;;
9536;SDS011;4807;48.024;11.726;2023-05-07T19:29:35;2.30;;;1.30;;